Time;durP1;ratioP1;P1;durP2;ratioP2;P2;SDS_P1;SDS_P2;PMS_P1;PMS_P2;Temp;Humidity;BMP_temperature;BMP_pressure;BME280_temperature;BME280_humidity;BME280_pressure;Samples;Min_cycle;Max_cycle;Signal;HPM_P1;HPM_P2
2024/04/14 00:00:04;;;;;;;27.90;9.80;;;;;;;14.03;51.94;99399.13;80760;1299;3052309;-57
2024/04/14 00:02:39;;;;;;;19.80;8.20;;;;;;;14.04;51.87;99400.41;80716;1295;3067898;-59
2024/04/14 00:05:06;;;;;;;24.40;9.10;;;;;;;14.04;51.72;99403.95;81999;1295;3012822;-58
2024/04/14 00:07:32;;;;;;;20.80;7.70;;;;;;;14.05;51.57;99402.62;82019;1295;3011161;-58
2024/04/14 00:10:00;;;;;;;18.30;7.90;;;;;;;14.07;51.57;99404.41;80754;1296;3026342;-58
2024/04/14 00:12:27;;;;;;;18.20;6.80;;;;;;;14.03;51.58;99406.27;82007;1295;3012632;-59
2024/04/14 00:14:54;;;;;;;21.70;8.10;;;;;;;14.08;51.79;99402.56;82015;1295;3011366;-59
2024/04/14 00:17:21;;;;;;;22.30;7.80;;;;;;;14.11;51.54;99401.67;80767;1301;3067801;-59
2024/04/14 00:19:52;;;;;;;21.40;7.40;;;;;;;14.10;51.70;99399.63;82040;1295;3012480;-58
2024/04/14 00:22:20;;;;;;;13.40;6.00;;;;;;;14.10;51.86;99399.45;80749;1295;3048915;-58
2024/04/14 00:24:47;;;;;;;21.00;5.90;;;;;;;14.17;51.24;99405.24;82026;1295;3018071;-58
2024/04/14 00:27:13;;;;;;;19.60;7.60;;;;;;;14.24;51.14;99402.63;82013;1299;3011444;-59
2024/04/14 00:29:41;;;;;;;19.90;6.40;;;;;;;14.25;51.08;99393.14;80739;1300;3026410;-60
2024/04/14 00:32:08;;;;;;;16.70;7.10;;;;;;;14.26;51.11;99395.21;82034;1299;3018801;-58
2024/04/14 00:34:34;;;;;;;26.20;7.90;;;;;;;14.23;51.27;99393.89;82025;1295;3011547;-56
2024/04/14 00:37:03;;;;;;;18.20;6.50;;;;;;;14.21;51.39;99392.27;80726;1297;3026377;-59
2024/04/14 00:39:29;;;;;;;18.40;6.00;;;;;;;14.22;51.13;99390.06;82041;1295;3012679;-58
2024/04/14 00:41:56;;;;;;;14.10;5.30;;;;;;;14.30;51.03;99394.09;82000;1295;3011444;-58
2024/04/14 00:44:24;;;;;;;18.50;5.60;;;;;;;14.32;51.07;99392.88;80753;1295;3052195;-58
2024/04/14 00:46:51;;;;;;;14.20;6.00;;;;;;;14.35;50.73;99389.27;82017;1295;3012727;-58
2024/04/14 00:49:19;;;;;;;16.30;6.70;;;;;;;14.33;51.05;99388.33;82016;1295;3011258;-58
2024/04/14 00:51:46;;;;;;;13.70;5.80;;;;;;;14.32;50.94;99384.17;80753;1295;3048652;-58
2024/04/14 00:54:17;;;;;;;16.90;6.10;;;;;;;14.33;50.68;99386.45;82018;1295;3013186;-60
2024/04/14 00:59:48;;;;;;;29.00;8.00;;;;;;;14.46;50.46;99385.21;79991;1304;3013613;-57
2024/04/14 01:02:14;;;;;;;23.00;10.00;;;;;;;14.44;50.69;99382.73;78920;1306;3013562;-58
2024/04/14 01:04:41;;;;;;;27.40;11.30;;;;;;;14.45;50.63;99379.49;79046;1299;3011723;-57
2024/04/14 01:07:09;;;;;;;33.20;13.90;;;;;;;14.32;51.09;99381.55;77814;1305;3028716;-59
2024/04/14 01:09:36;;;;;;;33.00;14.10;;;;;;;14.20;51.48;99379.45;79143;1304;3013748;-57
2024/04/14 01:12:03;;;;;;;44.60;16.10;;;;;;;14.11;51.73;99377.52;78600;1304;3013354;-59
2024/04/14 01:14:31;;;;;;;49.20;15.60;;;;;;;13.98;52.08;99378.55;77895;1301;3050015;-57
2024/04/14 01:16:58;;;;;;;45.80;15.40;;;;;;;13.89;52.35;99380.65;79420;1301;3013699;-56
2024/04/14 01:19:24;;;;;;;40.50;16.80;;;;;;;13.64;53.31;99376.80;79442;1301;3013057;-56
2024/04/14 01:21:52;;;;;;;47.60;16.80;;;;;;;13.57;53.49;99375.91;78183;1299;3027500;-57
2024/04/14 01:24:19;;;;;;;51.60;16.90;;;;;;;13.65;53.21;99377.27;79297;1301;3013303;-57
2024/04/14 01:26:45;;;;;;;46.50;17.30;;;;;;;13.68;53.08;99378.33;79249;1298;3012978;-59
2024/04/14 01:29:13;;;;;;;46.60;11.90;;;;;;;13.74;52.85;99377.11;78231;1301;3026451;-57
2024/04/14 01:31:40;;;;;;;32.20;8.40;;;;;;;13.84;52.32;99380.79;79357;1298;3014986;-59
2024/04/14 01:34:07;;;;;;;22.50;9.00;;;;;;;13.95;52.03;99389.13;79229;1299;3011732;-56
2024/04/14 01:36:35;;;;;;;34.30;11.10;;;;;;;13.99;52.23;99386.71;78217;1301;3052274;-59
2024/04/14 01:39:02;;;;;;;30.00;10.40;;;;;;;14.02;51.97;99391.58;79261;1301;3012666;-57
2024/04/14 01:41:29;;;;;;;25.80;9.20;;;;;;;14.04;52.13;99389.66;79694;1296;3013601;-58
2024/04/14 01:43:57;;;;;;;30.70;10.30;;;;;;;14.07;52.03;99389.58;78301;1295;3026189;-58
2024/04/14 01:46:23;;;;;;;25.20;8.50;;;;;;;14.05;52.16;99386.98;79487;1296;3013682;-56
2024/04/14 01:48:50;;;;;;;20.30;7.50;;;;;;;14.06;52.14;99388.44;79526;1296;3011582;-57
2024/04/14 01:51:18;;;;;;;16.30;8.00;;;;;;;14.08;52.16;99388.14;78267;1298;3025490;-57
2024/04/14 01:53:46;;;;;;;25.70;9.10;;;;;;;14.08;52.20;99384.10;79612;1298;3013166;-57
2024/04/14 01:56:13;;;;;;;21.30;9.80;;;;;;;14.02;52.48;99387.17;79588;1294;3011615;-58
2024/04/14 01:58:41;;;;;;;25.30;10.50;;;;;;;13.97;52.61;99391.80;78296;1297;3048401;-57
2024/04/14 02:01:08;;;;;;;38.10;12.20;;;;;;;14.01;52.60;99393.47;79560;1298;3013554;-58
2024/04/14 02:03:34;;;;;;;38.20;14.00;;;;;;;14.03;52.45;99389.95;79581;1295;3011932;-58
2024/04/14 02:06:03;;;;;;;59.30;20.60;;;;;;;14.01;52.78;99391.34;78397;1297;3027264;-56
2024/04/14 02:08:30;;;;;;;123.90;38.00;;;;;;;13.92;53.03;99392.13;79579;1297;3014458;-57
2024/04/14 02:10:59;;;;;;;104.50;30.40;;;;;;;13.96;53.08;99392.96;79482;1298;3011725;-57
2024/04/14 02:13:27;;;;;;;51.00;18.80;;;;;;;13.96;53.00;99389.42;78235;1298;3048586;-58
2024/04/14 02:15:54;;;;;;;36.90;12.90;;;;;;;13.87;53.51;99386.20;79551;1295;3013711;-59
2024/04/14 02:18:20;;;;;;;25.90;11.90;;;;;;;13.85;53.28;99386.33;79563;1297;3013315;-56
2024/04/14 02:20:48;;;;;;;22.00;10.30;;;;;;;13.81;53.79;99387.59;78350;1299;3026592;-61
2024/04/14 02:23:15;;;;;;;25.20;13.40;;;;;;;13.75;53.91;99390.95;79609;1298;3013196;-58
2024/04/14 02:25:41;;;;;;;23.50;13.20;;;;;;;13.66;54.27;99394.27;79544;1295;3012813;-56
2024/04/14 02:28:09;;;;;;;33.30;14.50;;;;;;;13.57;54.72;99391.95;78314;1295;3028970;-58
2024/04/14 02:30:36;;;;;;;24.80;13.20;;;;;;;13.50;55.28;99397.03;79529;1298;3012851;-60
2024/04/14 02:33:03;;;;;;;39.90;15.80;;;;;;;13.48;55.25;99395.45;79534;1294;3013160;-58
2024/04/14 02:35:31;;;;;;;32.70;13.40;;;;;;;13.35;56.12;99399.39;78371;1298;3026742;-57
2024/04/14 02:37:57;;;;;;;37.90;13.00;;;;;;;13.31;55.79;99401.40;79477;1296;3013781;-56
2024/04/14 02:40:24;;;;;;;30.50;11.30;;;;;;;13.22;56.18;99401.34;79525;1297;3011615;-57
2024/04/14 02:42:52;;;;;;;24.20;10.60;;;;;;;13.09;56.67;99405.94;78354;1298;3026571;-57
2024/04/14 02:45:18;;;;;;;31.90;13.50;;;;;;;12.87;57.76;99412.28;79500;1295;3013336;-57
2024/04/14 02:47:45;;;;;;;22.40;12.10;;;;;;;12.83;58.33;99413.80;79601;1293;3011767;-58
2024/04/14 02:50:13;;;;;;;19.90;9.50;;;;;;;12.83;59.23;99412.76;78313;1295;3028216;-57
2024/04/14 02:52:39;;;;;;;18.50;9.60;;;;;;;12.84;59.20;99414.05;79703;1298;3021311;-57
2024/04/14 02:55:06;;;;;;;17.50;8.30;;;;;;;12.76;60.61;99420.06;79388;1298;3011510;-55
2024/04/14 02:57:34;;;;;;;17.90;7.80;;;;;;;12.83;60.31;99422.77;78400;1298;3026875;-60
2024/04/14 03:00:02;;;;;;;24.90;8.30;;;;;;;12.82;60.02;99422.64;79655;1295;3012897;-55
2024/04/14 03:02:29;;;;;;;23.90;7.80;;;;;;;12.80;60.72;99427.42;79627;1299;3011724;-55
2024/04/14 03:04:57;;;;;;;21.60;8.70;;;;;;;12.78;60.59;99430.64;78454;1297;3053239;-57
2024/04/14 03:07:23;;;;;;;24.80;9.70;;;;;;;12.67;61.11;99431.48;79536;1296;3018381;-57
2024/04/14 03:09:52;;;;;;;29.70;11.50;;;;;;;12.72;60.84;99430.39;79583;1298;3011607;-56
2024/04/14 03:12:20;;;;;;;28.00;10.30;;;;;;;12.61;61.38;99434.29;78263;1294;3049035;-57
2024/04/14 03:14:47;;;;;;;27.80;10.30;;;;;;;12.62;61.30;99426.52;79487;1298;3018550;-58
2024/04/14 03:17:14;;;;;;;24.80;10.30;;;;;;;12.51;61.58;99428.66;79788;1298;3013253;-57
2024/04/14 03:19:42;;;;;;;21.70;8.90;;;;;;;12.44;62.31;99430.06;78403;1298;3026752;-58
2024/04/14 03:22:08;;;;;;;21.00;8.30;;;;;;;12.39;62.87;99426.54;79480;1298;3013301;-58
2024/04/14 03:24:35;;;;;;;16.30;9.10;;;;;;;12.38;62.96;99432.89;79536;1298;3012800;-57
2024/04/14 03:27:03;;;;;;;17.70;7.30;;;;;;;12.39;63.40;99428.29;78327;1298;3026364;-58
2024/04/14 03:29:30;;;;;;;17.60;7.80;;;;;;;12.38;63.90;99425.67;79691;1296;3014398;-58
2024/04/14 03:31:57;;;;;;;15.90;6.90;;;;;;;12.37;64.29;99419.28;79479;1296;3011878;-58
2024/04/14 03:34:25;;;;;;;12.30;5.70;;;;;;;12.41;64.12;99423.73;78385;1298;3051763;-59
2024/04/14 03:36:51;;;;;;;15.80;6.60;;;;;;;12.39;64.87;99425.61;79594;1296;3018585;-58
2024/04/14 03:39:18;;;;;;;19.90;6.70;;;;;;;12.38;65.33;99421.98;79567;1295;3011551;-57
2024/04/14 03:41:46;;;;;;;15.30;5.80;;;;;;;12.39;65.74;99421.91;78319;1298;3026556;-58
2024/04/14 03:44:14;;;;;;;15.00;6.00;;;;;;;12.35;66.46;99426.95;79621;1298;3013253;-59
2024/04/14 03:46:41;;;;;;;12.80;5.30;;;;;;;12.36;66.53;99422.17;79653;1304;3011737;-63
2024/04/14 03:49:09;;;;;;;11.00;5.30;;;;;;;12.39;66.59;99422.28;78345;1298;3051543;-57
2024/04/14 03:51:36;;;;;;;18.40;5.60;;;;;;;12.36;66.91;99426.73;79696;1298;3013596;-57
2024/04/14 03:54:02;;;;;;;13.80;5.20;;;;;;;12.40;67.06;99421.73;79527;1296;3011561;-58
2024/04/14 03:56:30;;;;;;;15.60;4.40;;;;;;;12.44;66.83;99426.33;78373;1298;3028752;-57
2024/04/14 03:58:57;;;;;;;11.30;5.20;;;;;;;12.45;66.83;99423.64;79528;1298;3012939;-58
2024/04/14 04:01:25;;;;;;;9.70;4.80;;;;;;;12.51;66.70;99423.90;79639;1298;3011595;-59
2024/04/14 04:03:53;;;;;;;11.50;4.50;;;;;;;12.54;66.94;99425.68;78352;1297;3053311;-59
2024/04/14 04:06:19;;;;;;;8.80;4.70;;;;;;;12.51;67.41;99425.49;79657;1294;3012693;-58
2024/04/14 04:08:46;;;;;;;17.20;5.50;;;;;;;12.51;67.36;99430.96;79563;1298;3011608;-60
2024/04/14 04:11:14;;;;;;;10.70;5.90;;;;;;;12.54;67.39;99433.89;78616;1298;3026949;-58
2024/04/14 04:13:40;;;;;;;9.50;4.90;;;;;;;12.64;66.87;99433.39;79688;1294;3018972;-58
2024/04/14 04:16:08;;;;;;;10.80;4.80;;;;;;;12.64;67.29;99429.92;79634;1298;3011679;-59
2024/04/14 04:18:36;;;;;;;9.50;3.90;;;;;;;12.65;67.30;99434.23;78434;1298;3025129;-57
2024/04/14 04:21:06;;;;;;;11.30;5.20;;;;;;;12.71;67.11;99435.73;79761;1298;3019328;-56
2024/04/14 04:23:35;;;;;;;14.00;4.70;;;;;;;12.67;67.53;99435.81;79100;1295;3011658;-59
2024/04/14 04:26:02;;;;;;;9.20;4.10;;;;;;;12.69;67.62;99438.15;79578;1298;3018418;-58
2024/04/14 04:28:29;;;;;;;11.70;4.40;;;;;;;12.66;68.00;99439.23;79555;1298;3013016;-59
2024/04/14 04:30:56;;;;;;;10.20;4.30;;;;;;;12.71;67.66;99443.44;78343;1298;3026802;-59
2024/04/14 04:33:23;;;;;;;9.30;4.70;;;;;;;12.76;67.67;99439.93;79639;1298;3021418;-59
2024/04/14 04:35:56;;;;;;;13.00;5.00;;;;;;;12.86;67.53;99442.09;79792;1295;3011924;-59
2024/04/14 04:38:25;;;;;;;15.00;5.00;;;;;;;12.92;67.24;99441.98;78572;1298;3052449;-59
2024/04/14 04:40:52;;;;;;;20.20;4.90;;;;;;;12.96;67.38;99444.16;79613;1298;3013370;-57
2024/04/14 04:43:20;;;;;;;16.20;4.70;;;;;;;12.97;67.29;99450.99;79685;1296;3011770;-59
2024/04/14 04:45:48;;;;;;;11.80;4.80;;;;;;;12.97;67.36;99449.77;78329;1298;3049619;-59
2024/04/14 04:48:14;;;;;;;10.70;5.30;;;;;;;12.97;67.63;99444.61;79641;1298;3018823;-59
2024/04/14 04:50:45;;;;;;;11.60;4.70;;;;;;;12.97;67.61;99450.25;79511;1297;3011783;-59
2024/04/14 04:53:14;;;;;;;14.70;5.20;;;;;;;13.00;67.82;99448.42;78850;1298;3051603;-58
2024/04/14 04:55:41;;;;;;;9.80;4.80;;;;;;;13.07;67.59;99446.34;79730;1298;3013665;-57
2024/04/14 04:58:08;;;;;;;18.60;6.40;;;;;;;13.20;67.29;99447.75;79616;1298;3011985;-59
2024/04/14 05:00:36;;;;;;;9.60;5.00;;;;;;;13.22;67.44;99450.08;78387;1296;3051819;-60
2024/04/14 05:03:03;;;;;;;14.90;5.40;;;;;;;13.31;67.30;99449.42;79456;1299;3013450;-58
2024/04/14 05:05:30;;;;;;;10.50;5.00;;;;;;;13.35;67.20;99447.91;79705;1296;3011570;-58
2024/04/14 05:07:58;;;;;;;11.00;5.00;;;;;;;13.32;67.22;99450.05;78307;1297;3028395;-57
2024/04/14 05:10:26;;;;;;;10.80;4.40;;;;;;;13.29;67.49;99453.27;79554;1296;3013126;-58
2024/04/14 05:12:52;;;;;;;11.20;5.00;;;;;;;13.33;67.58;99450.91;79474;1296;3011559;-59
2024/04/14 05:15:20;;;;;;;12.40;4.50;;;;;;;13.31;67.79;99448.41;78547;1298;3050933;-60
2024/04/14 05:17:47;;;;;;;9.90;4.40;;;;;;;13.38;67.82;99450.33;79593;1299;3013489;-60
2024/04/14 05:20:14;;;;;;;12.50;4.40;;;;;;;13.50;67.34;99450.56;79583;1298;3012083;-59
2024/04/14 05:22:42;;;;;;;12.10;4.70;;;;;;;13.61;66.88;99447.27;78275;1298;3026514;-57
2024/04/14 05:25:09;;;;;;;10.60;4.70;;;;;;;13.73;66.50;99447.98;79607;1297;3013685;-57
2024/04/14 05:27:35;;;;;;;10.10;4.50;;;;;;;13.78;66.35;99447.80;79569;1294;3013310;-58
2024/04/14 05:30:04;;;;;;;7.10;4.60;;;;;;;13.84;66.24;99449.31;78350;1299;3049353;-61
2024/04/14 05:32:31;;;;;;;13.40;4.50;;;;;;;13.90;65.65;99444.92;79504;1298;3013866;-60
2024/04/14 05:34:58;;;;;;;7.00;4.10;;;;;;;14.00;65.14;99442.86;79524;1295;3011941;-59
2024/04/14 05:37:25;;;;;;;8.70;4.10;;;;;;;14.08;64.96;99436.78;78286;1298;3052177;-59
2024/04/14 05:39:52;;;;;;;10.30;4.90;;;;;;;14.10;64.43;99432.34;79550;1299;3013166;-58
2024/04/14 05:42:19;;;;;;;11.80;4.90;;;;;;;14.16;63.89;99430.30;79382;1299;3012159;-59
2024/04/14 05:44:47;;;;;;;8.70;4.70;;;;;;;14.25;63.22;99429.85;78331;1298;3025120;-58
2024/04/14 05:47:13;;;;;;;13.40;5.80;;;;;;;14.36;62.69;99427.23;79192;1298;3013429;-61
2024/04/14 05:49:40;;;;;;;13.60;6.20;;;;;;;14.44;62.04;99425.08;79282;1296;3013126;-56
2024/04/14 05:52:08;;;;;;;12.30;6.80;;;;;;;14.58;61.72;99428.17;78094;1296;3026288;-56
2024/04/14 05:54:35;;;;;;;14.80;6.80;;;;;;;14.66;61.21;99434.46;79549;1296;3013187;-59
2024/04/14 05:57:01;;;;;;;17.00;7.50;;;;;;;14.77;60.40;99433.79;79483;1296;3013083;-59
2024/04/14 05:59:29;;;;;;;13.80;7.70;;;;;;;14.80;59.86;99435.85;78398;1297;3026557;-59
2024/04/14 06:01:56;;;;;;;13.50;7.60;;;;;;;14.87;59.33;99434.93;79600;1308;3012879;-59
2024/04/14 06:04:22;;;;;;;15.10;6.10;;;;;;;14.96;59.19;99434.61;79621;1298;3011833;-59
2024/04/14 06:06:50;;;;;;;12.60;6.00;;;;;;;15.10;58.77;99436.98;78431;1298;3025941;-58
2024/04/14 06:09:17;;;;;;;11.10;5.20;;;;;;;15.06;58.25;99443.52;79766;1295;3011551;-58
2024/04/14 06:11:44;;;;;;;9.50;4.90;;;;;;;14.96;58.66;99439.02;79477;1296;3011751;-59
2024/04/14 06:14:12;;;;;;;12.60;4.70;;;;;;;14.90;58.82;99438.73;78265;1307;3048925;-59
2024/04/14 06:16:38;;;;;;;16.40;6.90;;;;;;;14.89;59.36;99441.98;79537;1297;3019039;-60
2024/04/14 06:19:05;;;;;;;22.30;7.00;;;;;;;14.99;59.75;99436.52;79595;1296;3011390;-59
2024/04/14 06:21:33;;;;;;;17.70;7.50;;;;;;;15.18;59.41;99434.09;78349;1296;3027640;-58
2024/04/14 06:23:59;;;;;;;16.80;7.60;;;;;;;15.21;59.07;99435.59;79547;1296;3016215;-58
2024/04/14 06:26:26;;;;;;;15.60;7.80;;;;;;;15.29;58.81;99431.56;79458;1298;3011954;-59
2024/04/14 06:28:54;;;;;;;16.10;7.50;;;;;;;15.25;58.23;99437.73;78351;1297;3025812;-59
2024/04/14 06:31:21;;;;;;;15.20;8.00;;;;;;;15.34;57.75;99432.10;79613;1298;3013605;-60
2024/04/14 06:33:47;;;;;;;13.70;6.10;;;;;;;15.42;57.97;99430.56;79486;1296;3011865;-61
2024/04/14 06:36:16;;;;;;;13.30;5.70;;;;;;;15.55;58.01;99432.87;78432;1298;3027994;-61
2024/04/14 06:38:44;;;;;;;15.50;6.30;;;;;;;15.71;57.48;99431.41;79473;1296;3015093;-59
2024/04/14 06:41:12;;;;;;;13.10;7.10;;;;;;;15.61;57.49;99431.00;79859;1296;3011646;-59
2024/04/14 06:43:39;;;;;;;14.20;7.20;;;;;;;15.64;57.24;99427.53;78449;1295;3049903;-58
2024/04/14 06:46:06;;;;;;;15.20;6.20;;;;;;;15.81;56.99;99420.67;79803;1295;3013466;-61
2024/04/14 06:48:33;;;;;;;15.50;6.80;;;;;;;15.99;56.51;99421.33;79590;1295;3012844;-58
2024/04/14 06:51:01;;;;;;;16.00;7.50;;;;;;;16.13;56.02;99419.25;78444;1298;3028681;-58
2024/04/14 06:53:27;;;;;;;14.80;6.80;;;;;;;16.22;55.80;99419.06;79480;1296;3013106;-59
2024/04/14 06:55:58;;;;;;;11.90;5.80;;;;;;;16.29;55.43;99420.19;79653;1298;3013239;-60
2024/04/14 06:58:28;;;;;;;11.30;4.50;;;;;;;16.38;55.08;99423.88;78324;1298;3050216;-60
2024/04/14 07:00:54;;;;;;;9.50;4.10;;;;;;;16.31;54.51;99425.36;79461;1298;3013153;-58
2024/04/14 07:03:21;;;;;;;8.20;4.20;;;;;;;16.37;53.92;99423.61;79561;1298;3012223;-61
2024/04/14 07:05:49;;;;;;;9.50;4.20;;;;;;;16.46;53.78;99418.79;78323;1294;3052410;-58
2024/04/14 07:08:15;;;;;;;10.90;3.80;;;;;;;16.62;53.85;99417.41;79475;1299;3018749;-59
2024/04/14 07:10:42;;;;;;;10.70;4.30;;;;;;;16.72;53.67;99420.73;79551;1298;3011558;-60
2024/04/14 07:13:10;;;;;;;12.90;4.80;;;;;;;16.82;53.63;99422.94;78342;1297;3028742;-61
2024/04/14 07:15:37;;;;;;;9.20;3.10;;;;;;;16.67;52.29;99428.97;79557;1299;3013548;-59
2024/04/14 07:18:04;;;;;;;7.30;4.10;;;;;;;16.68;52.34;99423.75;79595;1299;3013083;-60
2024/04/14 07:20:36;;;;;;;8.40;3.80;;;;;;;16.81;52.60;99422.14;78355;1297;3028574;-58
2024/04/14 07:23:02;;;;;;;9.20;3.90;;;;;;;16.90;52.36;99421.73;79521;1298;3011658;-60
2024/04/14 07:25:31;;;;;;;14.20;6.70;;;;;;;17.01;51.92;99423.47;78341;1298;3049473;-60
2024/04/14 07:27:57;;;;;;;13.10;6.30;;;;;;;17.00;52.06;99421.38;79675;1298;3013717;-60
2024/04/14 07:30:24;;;;;;;12.70;6.10;;;;;;;17.05;50.68;99419.29;79741;1295;3011500;-59
2024/04/14 07:32:52;;;;;;;13.20;5.70;;;;;;;17.07;50.14;99421.45;78296;1296;3024862;-60
2024/04/14 07:35:18;;;;;;;14.30;5.10;;;;;;;17.11;50.64;99417.95;79754;1295;3011420;-60
2024/04/14 07:37:45;;;;;;;10.50;3.50;;;;;;;17.33;50.09;99418.79;79587;1297;3011386;-57
